Herd, Kentucky
Current Conditions -  °F | °C
As of 12:53 PM on Friday 21 Nov 2014 (Local Time) from KLOZ Reporting Station
Clear Clear  
Wind Chill: 39°   Ceiling: Unl
Heat Index: 39°   Visibility: 10mi
Dew Point: 14°   Wind: 3mph
Humidity: 36%   Direction: 190°S
Pressure: 30.47"   Gusts: NA
Location:  37.346°N, 83.8503°W
Report Text: KLOZ 211753Z AUTO 19003KT 10SM CLR 04/M10 A3047 RMK AO2 SLP327 I6000 T00391100 10039 21067 58002
Loading
Personal Weather Stations






























Interactive Weather Map New forecast layout! Learn more

10-Day Weather Forecast

Advertisements
Track Severe Weather on mobile